Aeroporto :
LOGIN :

Iscrizione | Disclaimer

   EN    FR    IT 

 










Sommario :    VFR   VFR Marginale   IFR   IFR Intensivo   IFR Molto Intensivo
Visibilità : 
Base nubi : 
>= 8 km
>= 3000ft
5 / 8 km
1000 / 3000 ft
1500m / 5 km
500 / 1000 ft
800 / 1500m
200 / 500 ft
< 800m
< 200 ft
Simboli :   Temporali  Nebbia  Neve Forte  Precipitazioni Forti  Vento > 20 kt
SIGMETs :   Varie  Temporali  Ghiacco  Turbolenza  Onda orograficha  Ceneri Vulcaniche






- Altitudine del aeroporto : 268 ft
- Codice IATA : BFS


EGAA - Belfast Aldergrove

ULTIMO METAR :
  • 121750Z 20009KT 9999 BKN020 16/13 Q1023

METARs OBSOLETI :
  • 121720Z 21008KT 9999 BKN022 BKN028 17/13 Q1023
  • 121650Z 21008KT 170V230 9999 BKN023 17/12 Q1023
  • 121620Z 21008KT 170V240 9999 BKN025 17/12 Q1024
  • 121550Z 21009KT 9999 BKN028 17/12 Q1024
  • 121520Z 20009KT 9999 BKN028 OVC033 18/12 Q1024

TAF TAF EGAA
Valido dal 12 a 18 ore il 13 a 18 ore UTC


121655Z 1218/1318 21013KT 9999 FEW015 SCT030
TEMPO 1218/1311 7000 RA -RADZ
PROB30
TEMPO 1218/1306 4000 RADZ
BECMG 1219/1222 BKN007
TEMPO 1222/1306 BKN004
BECMG 1306/1309 SCT012 BKN030
TEMPO 1309/1311 BKN012
BECMG 1312/1315 27011KT



MetMap, La meteo Aeronautica in un colpo d'occhio ! - Copyright ORBIFLY Dicembre 2007 - Disclaimer

ORBIFLY MET'MAP TEAM :

Programmazione e sviluppo : Alexandra Zaïnal
Concezione : Baudouin d'Aumeries
Aiuto per la programmazione : Marc-Olivier Méhu
Supporto tecnico e logistico : Manuel Goepfert
Aiuto per la traduzione : Arnaldo La Scala

Contatto : metmap@orbifly.com




FONTI E CREDITI :

   NOAA